sensor_id;sensor_type;location;lat;lon;timestamp;temperature;humidity
21121;DHT22;12519;43.318;21.898;2022-11-14T00:04:04;12.2;92.0
21121;DHT22;12519;43.318;21.898;2022-11-14T00:08:40;12.1;92.0
21121;DHT22;12519;43.318;21.898;2022-11-14T00:13:18;12.1;92.0
21121;DHT22;12519;43.318;21.898;2022-11-14T00:17:56;12.1;92.0
21121;DHT22;12519;43.318;21.898;2022-11-14T00:22:32;12.1;91.0
21121;DHT22;12519;43.318;21.898;2022-11-14T00:27:09;12.1;91.0
21121;DHT22;12519;43.318;21.898;2022-11-14T00:31:46;12.1;91.0
21121;DHT22;12519;43.318;21.898;2022-11-14T00:36:23;12.1;91.0
21121;DHT22;12519;43.318;21.898;2022-11-14T00:40:59;12.2;92.0
21121;DHT22;12519;43.318;21.898;2022-11-14T00:45:36;12.2;92.0
21121;DHT22;12519;43.318;21.898;2022-11-14T00:50:14;12.0;92.0
21121;DHT22;12519;43.318;21.898;2022-11-14T00:54:52;12.0;92.0
21121;DHT22;12519;43.318;21.898;2022-11-14T00:59:28;11.9;92.0
21121;DHT22;12519;43.318;21.898;2022-11-14T01:04:05;11.9;92.0
21121;DHT22;12519;43.318;21.898;2022-11-14T01:08:43;11.9;92.0
21121;DHT22;12519;43.318;21.898;2022-11-14T01:13:21;11.9;92.0
21121;DHT22;12519;43.318;21.898;2022-11-14T01:17:57;11.9;92.0
21121;DHT22;12519;43.318;21.898;2022-11-14T01:22:34;11.8;92.0
21121;DHT22;12519;43.318;21.898;2022-11-14T01:27:10;11.8;92.0
21121;DHT22;12519;43.318;21.898;2022-11-14T01:31:47;11.9;92.0
21121;DHT22;12519;43.318;21.898;2022-11-14T01:36:23;11.9;92.0
21121;DHT22;12519;43.318;21.898;2022-11-14T01:41:00;11.9;92.0
21121;DHT22;12519;43.318;21.898;2022-11-14T01:45:51;11.9;92.0
21121;DHT22;12519;43.318;21.898;2022-11-14T01:50:51;11.9;91.0
21121;DHT22;12519;43.318;21.898;2022-11-14T01:55:53;11.9;91.0
21121;DHT22;12519;43.318;21.898;2022-11-14T02:00:43;11.8;91.0
21121;DHT22;12519;43.318;21.898;2022-11-14T02:05:20;11.8;91.0
21121;DHT22;12519;43.318;21.898;2022-11-14T02:10:01;11.6;92.0
21121;DHT22;12519;43.318;21.898;2022-11-14T02:14:56;11.6;92.0
21121;DHT22;12519;43.318;21.898;2022-11-14T02:19:41;11.3;93.0
21121;DHT22;12519;43.318;21.898;2022-11-14T02:24:39;11.3;93.0
21121;DHT22;12519;43.318;21.898;2022-11-14T02:29:20;11.4;92.0
21121;DHT22;12519;43.318;21.898;2022-11-14T02:33:57;11.4;92.0
21121;DHT22;12519;43.318;21.898;2022-11-14T02:38:33;11.4;92.0
21121;DHT22;12519;43.318;21.898;2022-11-14T02:43:11;11.6;92.0
21121;DHT22;12519;43.318;21.898;2022-11-14T02:47:47;11.6;92.0
21121;DHT22;12519;43.318;21.898;2022-11-14T02:52:24;11.7;92.0
21121;DHT22;12519;43.318;21.898;2022-11-14T02:57:01;11.7;92.0
21121;DHT22;12519;43.318;21.898;2022-11-14T03:01:37;11.8;91.0
21121;DHT22;12519;43.318;21.898;2022-11-14T03:06:14;11.8;91.0
21121;DHT22;12519;43.318;21.898;2022-11-14T03:10:51;11.8;91.0
21121;DHT22;12519;43.318;21.898;2022-11-14T03:15:27;11.8;91.0
21121;DHT22;12519;43.318;21.898;2022-11-14T03:20:05;11.7;91.0
21121;DHT22;12519;43.318;21.898;2022-11-14T03:24:45;11.7;91.0
21121;DHT22;12519;43.318;21.898;2022-11-14T03:29:22;11.7;91.0
21121;DHT22;12519;43.318;21.898;2022-11-14T03:33:59;11.7;91.0
21121;DHT22;12519;43.318;21.898;2022-11-14T03:38:35;11.7;91.0
21121;DHT22;12519;43.318;21.898;2022-11-14T03:43:13;11.7;91.0
21121;DHT22;12519;43.318;21.898;2022-11-14T03:47:53;11.7;91.0
21121;DHT22;12519;43.318;21.898;2022-11-14T03:52:30;11.6;92.0
21121;DHT22;12519;43.318;21.898;2022-11-14T03:57:06;11.6;92.0
21121;DHT22;12519;43.318;21.898;2022-11-14T04:01:43;11.6;93.0
21121;DHT22;12519;43.318;21.898;2022-11-14T04:06:20;11.6;93.0
21121;DHT22;12519;43.318;21.898;2022-11-14T04:10:57;12.0;92.0
21121;DHT22;12519;43.318;21.898;2022-11-14T04:15:33;12.0;92.0
21121;DHT22;12519;43.318;21.898;2022-11-14T04:20:11;12.3;92.0
21121;DHT22;12519;43.318;21.898;2022-11-14T04:24:51;12.3;92.0
21121;DHT22;12519;43.318;21.898;2022-11-14T04:29:27;12.0;91.0
21121;DHT22;12519;43.318;21.898;2022-11-14T04:34:04;12.0;91.0
21121;DHT22;12519;43.318;21.898;2022-11-14T04:38:40;12.0;91.0
21121;DHT22;12519;43.318;21.898;2022-11-14T04:43:19;11.6;91.0
21121;DHT22;12519;43.318;21.898;2022-11-14T04:47:56;11.6;91.0
21121;DHT22;12519;43.318;21.898;2022-11-14T04:52:33;11.6;91.0
21121;DHT22;12519;43.318;21.898;2022-11-14T04:57:10;11.6;91.0
21121;DHT22;12519;43.318;21.898;2022-11-14T05:01:47;11.5;91.0
21121;DHT22;12519;43.318;21.898;2022-11-14T05:06:24;11.5;91.0
21121;DHT22;12519;43.318;21.898;2022-11-14T05:11:00;11.4;91.0
21121;DHT22;12519;43.318;21.898;2022-11-14T05:15:38;11.4;91.0
21121;DHT22;12519;43.318;21.898;2022-11-14T05:20:14;11.2;91.0
21121;DHT22;12519;43.318;21.898;2022-11-14T05:24:51;11.2;91.0
21121;DHT22;12519;43.318;21.898;2022-11-14T05:29:28;11.1;91.0
21121;DHT22;12519;43.318;21.898;2022-11-14T05:34:05;11.1;91.0
21121;DHT22;12519;43.318;21.898;2022-11-14T05:38:42;11.1;91.0
21121;DHT22;12519;43.318;21.898;2022-11-14T05:43:19;11.1;92.0
21121;DHT22;12519;43.318;21.898;2022-11-14T05:47:56;11.1;92.0
21121;DHT22;12519;43.318;21.898;2022-11-14T05:52:32;10.6;94.0
21121;DHT22;12519;43.318;21.898;2022-11-14T05:57:09;10.6;94.0
21121;DHT22;12519;43.318;21.898;2022-11-14T06:01:45;10.1;96.0
21121;DHT22;12519;43.318;21.898;2022-11-14T06:06:22;10.1;96.0
21121;DHT22;12519;43.318;21.898;2022-11-14T06:11:02;10.2;95.0
21121;DHT22;12519;43.318;21.898;2022-11-14T06:15:48;10.2;95.0
21121;DHT22;12519;43.318;21.898;2022-11-14T06:20:25;10.4;95.0
21121;DHT22;12519;43.318;21.898;2022-11-14T06:25:03;10.4;95.0
21121;DHT22;12519;43.318;21.898;2022-11-14T06:29:43;10.6;96.0
21121;DHT22;12519;43.318;21.898;2022-11-14T06:34:20;10.6;96.0
21121;DHT22;12519;43.318;21.898;2022-11-14T06:38:56;10.6;96.0
21121;DHT22;12519;43.318;21.898;2022-11-14T06:43:33;10.7;98.0
21121;DHT22;12519;43.318;21.898;2022-11-14T06:48:14;10.7;98.0
21121;DHT22;12519;43.318;21.898;2022-11-14T06:52:50;12.4;94.0
21121;DHT22;12519;43.318;21.898;2022-11-14T06:57:27;12.4;94.0
21121;DHT22;12519;43.318;21.898;2022-11-14T07:02:03;14.1;91.0
21121;DHT22;12519;43.318;21.898;2022-11-14T07:06:40;14.1;91.0
21121;DHT22;12519;43.318;21.898;2022-11-14T07:11:18;13.1;90.0
21121;DHT22;12519;43.318;21.898;2022-11-14T07:16:00;13.1;90.0
21121;DHT22;12519;43.318;21.898;2022-11-14T07:20:40;12.1;90.0
21121;DHT22;12519;43.318;21.898;2022-11-14T07:25:17;12.1;90.0
21121;DHT22;12519;43.318;21.898;2022-11-14T07:29:54;12.6;89.0
21121;DHT22;12519;43.318;21.898;2022-11-14T07:34:30;12.6;89.0
21121;DHT22;12519;43.318;21.898;2022-11-14T07:39:07;12.6;89.0
21121;DHT22;12519;43.318;21.898;2022-11-14T07:43:44;13.0;89.0
21121;DHT22;12519;43.318;21.898;2022-11-14T07:48:21;13.0;89.0
21121;DHT22;12519;43.318;21.898;2022-11-14T07:52:58;13.5;88.0
21121;DHT22;12519;43.318;21.898;2022-11-14T07:57:35;13.5;88.0
21121;DHT22;12519;43.318;21.898;2022-11-14T08:02:12;14.0;86.0
21121;DHT22;12519;43.318;21.898;2022-11-14T08:06:50;14.0;86.0
21121;DHT22;12519;43.318;21.898;2022-11-14T08:11:27;14.4;85.0
21121;DHT22;12519;43.318;21.898;2022-11-14T08:16:05;14.4;85.0
21121;DHT22;12519;43.318;21.898;2022-11-14T08:20:46;14.8;84.0
21121;DHT22;12519;43.318;21.898;2022-11-14T08:25:23;14.8;84.0
21121;DHT22;12519;43.318;21.898;2022-11-14T08:30:00;15.2;84.0
21121;DHT22;12519;43.318;21.898;2022-11-14T08:34:36;15.2;84.0
21121;DHT22;12519;43.318;21.898;2022-11-14T08:39:13;15.2;84.0
21121;DHT22;12519;43.318;21.898;2022-11-14T08:43:50;15.5;84.0
21121;DHT22;12519;43.318;21.898;2022-11-14T08:48:27;15.5;84.0
21121;DHT22;12519;43.318;21.898;2022-11-14T08:53:07;16.6;83.0
21121;DHT22;12519;43.318;21.898;2022-11-14T08:57:44;16.6;83.0
21121;DHT22;12519;43.318;21.898;2022-11-14T09:02:22;17.8;83.0
21121;DHT22;12519;43.318;21.898;2022-11-14T09:06:59;17.8;83.0
21121;DHT22;12519;43.318;21.898;2022-11-14T09:11:35;18.4;81.0
21121;DHT22;12519;43.318;21.898;2022-11-14T09:16:12;18.4;81.0
21121;DHT22;12519;43.318;21.898;2022-11-14T09:20:49;18.9;80.0
21121;DHT22;12519;43.318;21.898;2022-11-14T09:25:25;18.9;80.0
21121;DHT22;12519;43.318;21.898;2022-11-14T09:30:03;18.8;81.0
21121;DHT22;12519;43.318;21.898;2022-11-14T09:34:44;18.8;81.0
21121;DHT22;12519;43.318;21.898;2022-11-14T09:39:20;18.8;81.0
21121;DHT22;12519;43.318;21.898;2022-11-14T09:44:11;18.6;82.0
21121;DHT22;12519;43.318;21.898;2022-11-14T09:49:35;18.6;82.0
21121;DHT22;12519;43.318;21.898;2022-11-14T09:54:22;18.6;80.0
21121;DHT22;12519;43.318;21.898;2022-11-14T09:59:20;18.6;80.0
21121;DHT22;12519;43.318;21.898;2022-11-14T10:04:03;18.7;78.0
21121;DHT22;12519;43.318;21.898;2022-11-14T10:09:46;18.7;78.0
21121;DHT22;12519;43.318;21.898;2022-11-14T10:15:30;17.9;79.0
21121;DHT22;12519;43.318;21.898;2022-11-14T10:20:49;17.1;80.0
21121;DHT22;12519;43.318;21.898;2022-11-14T10:26:14;17.1;80.0
21121;DHT22;12519;43.318;21.898;2022-11-14T10:31:19;17.0;81.0
21121;DHT22;12519;43.318;21.898;2022-11-14T10:36:48;17.0;81.0
21121;DHT22;12519;43.318;21.898;2022-11-14T10:42:00;16.9;82.0
21121;DHT22;12519;43.318;21.898;2022-11-14T10:47:02;16.9;82.0
21121;DHT22;12519;43.318;21.898;2022-11-14T10:51:58;17.0;82.0
21121;DHT22;12519;43.318;21.898;2022-11-14T10:56:53;17.0;82.0
21121;DHT22;12519;43.318;21.898;2022-11-14T11:01:32;17.1;81.0
21121;DHT22;12519;43.318;21.898;2022-11-14T11:06:27;17.1;81.0
21121;DHT22;12519;43.318;21.898;2022-11-14T11:11:11;17.2;81.0
21121;DHT22;12519;43.318;21.898;2022-11-14T11:15:57;17.2;81.0
21121;DHT22;12519;43.318;21.898;2022-11-14T11:20:41;17.4;81.0
21121;DHT22;12519;43.318;21.898;2022-11-14T11:25:22;17.4;81.0
21121;DHT22;12519;43.318;21.898;2022-11-14T11:30:18;17.5;81.0
21121;DHT22;12519;43.318;21.898;2022-11-14T11:35:00;17.5;81.0
21121;DHT22;12519;43.318;21.898;2022-11-14T11:39:55;17.5;81.0
21121;DHT22;12519;43.318;21.898;2022-11-14T11:44:59;17.7;80.0
21121;DHT22;12519;43.318;21.898;2022-11-14T11:49:53;17.7;80.0
21121;DHT22;12519;43.318;21.898;2022-11-14T11:54:45;17.8;80.0
21121;DHT22;12519;43.318;21.898;2022-11-14T11:59:55;17.8;80.0
21121;DHT22;12519;43.318;21.898;2022-11-14T12:04:55;18.0;80.0
21121;DHT22;12519;43.318;21.898;2022-11-14T12:09:37;18.0;80.0
21121;DHT22;12519;43.318;21.898;2022-11-14T12:14:42;18.2;81.0
21121;DHT22;12519;43.318;21.898;2022-11-14T12:20:13;18.3;82.0
21121;DHT22;12519;43.318;21.898;2022-11-14T12:25:47;18.3;82.0
21121;DHT22;12519;43.318;21.898;2022-11-14T12:31:41;19.0;82.0
21121;DHT22;12519;43.318;21.898;2022-11-14T12:36:26;19.0;82.0
21121;DHT22;12519;43.318;21.898;2022-11-14T12:41:10;19.8;82.0
21121;DHT22;12519;43.318;21.898;2022-11-14T12:46:04;19.8;82.0
21121;DHT22;12519;43.318;21.898;2022-11-14T12:50:47;19.9;80.0
21121;DHT22;12519;43.318;21.898;2022-11-14T12:56:38;19.9;80.0
21121;DHT22;12519;43.318;21.898;2022-11-14T13:01:52;20.0;78.0
21121;DHT22;12519;43.318;21.898;2022-11-14T13:08:48;20.0;78.0
21121;DHT22;12519;43.318;21.898;2022-11-14T13:14:08;19.6;78.0
21121;DHT22;12519;43.318;21.898;2022-11-14T13:18:50;19.6;78.0
21121;DHT22;12519;43.318;21.898;2022-11-14T13:23:55;19.3;78.0
21121;DHT22;12519;43.318;21.898;2022-11-14T13:28:49;19.3;78.0
21121;DHT22;12519;43.318;21.898;2022-11-14T13:33:45;19.2;78.0
21121;DHT22;12519;43.318;21.898;2022-11-14T13:38:46;19.2;78.0
21121;DHT22;12519;43.318;21.898;2022-11-14T13:44:42;19.2;78.0
21121;DHT22;12519;43.318;21.898;2022-11-14T13:50:24;19.2;78.0
21121;DHT22;12519;43.318;21.898;2022-11-14T13:55:19;19.2;78.0
21121;DHT22;12519;43.318;21.898;2022-11-14T14:00:29;19.1;77.0
21121;DHT22;12519;43.318;21.898;2022-11-14T14:06:35;19.1;77.0
21121;DHT22;12519;43.318;21.898;2022-11-14T14:12:09;19.0;77.0
21121;DHT22;12519;43.318;21.898;2022-11-14T14:18:03;19.0;77.0
21121;DHT22;12519;43.318;21.898;2022-11-14T14:23:39;19.0;78.0
21121;DHT22;12519;43.318;21.898;2022-11-14T14:28:59;19.0;78.0
21121;DHT22;12519;43.318;21.898;2022-11-14T14:34:20;18.8;78.0
21121;DHT22;12519;43.318;21.898;2022-11-14T14:39:14;18.8;78.0
21121;DHT22;12519;43.318;21.898;2022-11-14T14:43:59;18.5;78.0
21121;DHT22;12519;43.318;21.898;2022-11-14T14:48:39;18.5;78.0
21121;DHT22;12519;43.318;21.898;2022-11-14T14:53:21;18.8;80.0
21121;DHT22;12519;43.318;21.898;2022-11-14T14:58:15;18.8;80.0
21121;DHT22;12519;43.318;21.898;2022-11-14T15:03:09;19.1;82.0
21121;DHT22;12519;43.318;21.898;2022-11-14T15:07:46;19.1;82.0
21121;DHT22;12519;43.318;21.898;2022-11-14T15:12:28;19.2;80.0
21121;DHT22;12519;43.318;21.898;2022-11-14T15:17:09;19.2;80.0
21121;DHT22;12519;43.318;21.898;2022-11-14T15:22:17;19.2;78.0
21121;DHT22;12519;43.318;21.898;2022-11-14T15:27:03;19.2;78.0
21121;DHT22;12519;43.318;21.898;2022-11-14T15:31:55;18.0;79.0
21121;DHT22;12519;43.318;21.898;2022-11-14T15:37:05;18.0;79.0
21121;DHT22;12519;43.318;21.898;2022-11-14T15:42:11;16.9;80.0
21121;DHT22;12519;43.318;21.898;2022-11-14T15:46:55;16.9;80.0
21121;DHT22;12519;43.318;21.898;2022-11-14T15:51:38;16.4;81.0
21121;DHT22;12519;43.318;21.898;2022-11-14T15:56:24;16.4;81.0
21121;DHT22;12519;43.318;21.898;2022-11-14T16:01:00;16.0;82.0
21121;DHT22;12519;43.318;21.898;2022-11-14T16:05:37;16.0;82.0
21121;DHT22;12519;43.318;21.898;2022-11-14T16:10:16;16.0;82.0
21121;DHT22;12519;43.318;21.898;2022-11-14T16:14:59;16.0;84.0
21121;DHT22;12519;43.318;21.898;2022-11-14T16:19:36;16.0;84.0
21121;DHT22;12519;43.318;21.898;2022-11-14T16:24:15;16.1;85.0
21121;DHT22;12519;43.318;21.898;2022-11-14T16:28:57;16.1;85.0
21121;DHT22;12519;43.318;21.898;2022-11-14T16:33:33;15.8;84.0
21121;DHT22;12519;43.318;21.898;2022-11-14T16:38:11;15.8;84.0
21121;DHT22;12519;43.318;21.898;2022-11-14T16:42:49;15.6;84.0
21121;DHT22;12519;43.318;21.898;2022-11-14T16:47:31;15.6;84.0
21121;DHT22;12519;43.318;21.898;2022-11-14T16:52:09;15.3;84.0
21121;DHT22;12519;43.318;21.898;2022-11-14T16:56:46;15.3;84.0
21121;DHT22;12519;43.318;21.898;2022-11-14T17:01:23;15.0;84.0
21121;DHT22;12519;43.318;21.898;2022-11-14T17:06:00;15.0;84.0
21121;DHT22;12519;43.318;21.898;2022-11-14T17:10:45;14.8;85.0
21121;DHT22;12519;43.318;21.898;2022-11-14T17:15:22;14.8;85.0
21121;DHT22;12519;43.318;21.898;2022-11-14T17:19:58;14.8;85.0
21121;DHT22;12519;43.318;21.898;2022-11-14T17:24:35;14.7;85.0
21121;DHT22;12519;43.318;21.898;2022-11-14T17:29:12;14.7;85.0
21121;DHT22;12519;43.318;21.898;2022-11-14T17:33:50;14.6;86.0
21121;DHT22;12519;43.318;21.898;2022-11-14T17:38:33;14.6;86.0
21121;DHT22;12519;43.318;21.898;2022-11-14T17:43:14;14.4;86.0
21121;DHT22;12519;43.318;21.898;2022-11-14T17:47:51;14.4;86.0
21121;DHT22;12519;43.318;21.898;2022-11-14T17:52:28;14.4;86.0
21121;DHT22;12519;43.318;21.898;2022-11-14T17:57:05;14.4;86.0
21121;DHT22;12519;43.318;21.898;2022-11-14T18:01:42;14.3;87.0
21121;DHT22;12519;43.318;21.898;2022-11-14T18:06:19;14.3;87.0
21121;DHT22;12519;43.318;21.898;2022-11-14T18:10:58;14.2;87.0
21121;DHT22;12519;43.318;21.898;2022-11-14T18:15:37;14.2;87.0
21121;DHT22;12519;43.318;21.898;2022-11-14T18:20:15;14.2;87.0
21121;DHT22;12519;43.318;21.898;2022-11-14T18:24:52;14.0;87.0
21121;DHT22;12519;43.318;21.898;2022-11-14T18:29:30;14.0;87.0
21121;DHT22;12519;43.318;21.898;2022-11-14T18:34:07;14.0;87.0
21121;DHT22;12519;43.318;21.898;2022-11-14T18:38:44;14.0;87.0
21121;DHT22;12519;43.318;21.898;2022-11-14T18:43:22;13.9;88.0
21121;DHT22;12519;43.318;21.898;2022-11-14T18:47:58;13.9;88.0
21121;DHT22;12519;43.318;21.898;2022-11-14T18:52:35;13.8;88.0
21121;DHT22;12519;43.318;21.898;2022-11-14T18:57:12;13.8;88.0
21121;DHT22;12519;43.318;21.898;2022-11-14T19:01:48;13.6;88.0
21121;DHT22;12519;43.318;21.898;2022-11-14T19:06:25;13.6;88.0
21121;DHT22;12519;43.318;21.898;2022-11-14T19:11:09;13.6;89.0
21121;DHT22;12519;43.318;21.898;2022-11-14T19:15:53;13.6;89.0
21121;DHT22;12519;43.318;21.898;2022-11-14T19:20:35;13.6;89.0
21121;DHT22;12519;43.318;21.898;2022-11-14T19:25:12;13.5;89.0
21121;DHT22;12519;43.318;21.898;2022-11-14T19:29:49;13.5;89.0
21121;DHT22;12519;43.318;21.898;2022-11-14T19:34:25;13.4;89.0
21121;DHT22;12519;43.318;21.898;2022-11-14T19:39:02;13.4;89.0
21121;DHT22;12519;43.318;21.898;2022-11-14T19:43:41;13.3;89.0
21121;DHT22;12519;43.318;21.898;2022-11-14T19:48:19;13.3;89.0
21121;DHT22;12519;43.318;21.898;2022-11-14T19:52:55;13.3;89.0
21121;DHT22;12519;43.318;21.898;2022-11-14T19:57:32;13.3;89.0
21121;DHT22;12519;43.318;21.898;2022-11-14T20:02:11;13.3;89.0
21121;DHT22;12519;43.318;21.898;2022-11-14T20:06:49;13.3;89.0
21121;DHT22;12519;43.318;21.898;2022-11-14T20:11:26;13.2;89.0
21121;DHT22;12519;43.318;21.898;2022-11-14T20:16:07;13.2;89.0
21121;DHT22;12519;43.318;21.898;2022-11-14T20:20:48;13.2;89.0
21121;DHT22;12519;43.318;21.898;2022-11-14T20:25:25;13.1;89.0
21121;DHT22;12519;43.318;21.898;2022-11-14T20:30:02;13.1;89.0
21121;DHT22;12519;43.318;21.898;2022-11-14T20:34:41;13.1;89.0
21121;DHT22;12519;43.318;21.898;2022-11-14T20:39:17;13.1;89.0
21121;DHT22;12519;43.318;21.898;2022-11-14T20:53:10;12.9;89.0
21121;DHT22;12519;43.318;21.898;2022-11-14T20:57:46;12.9;89.0
21121;DHT22;12519;43.318;21.898;2022-11-14T21:02:23;12.9;89.0
21121;DHT22;12519;43.318;21.898;2022-11-14T21:07:00;12.9;89.0
21121;DHT22;12519;43.318;21.898;2022-11-14T21:11:37;13.0;89.0
21121;DHT22;12519;43.318;21.898;2022-11-14T21:16:18;13.0;89.0
21121;DHT22;12519;43.318;21.898;2022-11-14T21:21:08;13.0;89.0
21121;DHT22;12519;43.318;21.898;2022-11-14T21:25:45;13.0;89.0
21121;DHT22;12519;43.318;21.898;2022-11-14T21:30:21;13.0;89.0
21121;DHT22;12519;43.318;21.898;2022-11-14T21:34:58;13.0;90.0
21121;DHT22;12519;43.318;21.898;2022-11-14T21:39:34;13.0;90.0
21121;DHT22;12519;43.318;21.898;2022-11-14T21:44:16;13.0;91.0
21121;DHT22;12519;43.318;21.898;2022-11-14T21:48:57;13.0;91.0
21121;DHT22;12519;43.318;21.898;2022-11-14T21:53:35;12.8;90.0
21121;DHT22;12519;43.318;21.898;2022-11-14T21:58:12;12.8;90.0
21121;DHT22;12519;43.318;21.898;2022-11-14T22:02:48;12.6;90.0
21121;DHT22;12519;43.318;21.898;2022-11-14T22:07:25;12.6;90.0
21121;DHT22;12519;43.318;21.898;2022-11-14T22:12:02;12.5;90.0
21121;DHT22;12519;43.318;21.898;2022-11-14T22:16:39;12.5;90.0
21121;DHT22;12519;43.318;21.898;2022-11-14T22:21:17;12.4;90.0
21121;DHT22;12519;43.318;21.898;2022-11-14T22:25:58;12.4;90.0
21121;DHT22;12519;43.318;21.898;2022-11-14T22:30:36;12.4;90.0
21121;DHT22;12519;43.318;21.898;2022-11-14T22:35:13;12.4;90.0
21121;DHT22;12519;43.318;21.898;2022-11-14T22:39:49;12.4;90.0
21121;DHT22;12519;43.318;21.898;2022-11-14T22:44:26;12.4;90.0
21121;DHT22;12519;43.318;21.898;2022-11-14T22:49:03;12.4;90.0
21121;DHT22;12519;43.318;21.898;2022-11-14T22:53:45;12.2;90.0
21121;DHT22;12519;43.318;21.898;2022-11-14T22:58:31;12.2;90.0
21121;DHT22;12519;43.318;21.898;2022-11-14T23:03:10;12.1;90.0
21121;DHT22;12519;43.318;21.898;2022-11-14T23:07:47;12.1;90.0
21121;DHT22;12519;43.318;21.898;2022-11-14T23:12:23;12.0;90.0
21121;DHT22;12519;43.318;21.898;2022-11-14T23:16:59;12.0;90.0
21121;DHT22;12519;43.318;21.898;2022-11-14T23:21:36;12.0;91.0
21121;DHT22;12519;43.318;21.898;2022-11-14T23:26:17;12.0;91.0
21121;DHT22;12519;43.318;21.898;2022-11-14T23:30:57;12.0;91.0
21121;DHT22;12519;43.318;21.898;2022-11-14T23:35:35;12.0;91.0
21121;DHT22;12519;43.318;21.898;2022-11-14T23:40:12;12.0;91.0
21121;DHT22;12519;43.318;21.898;2022-11-14T23:44:49;11.9;91.0
21121;DHT22;12519;43.318;21.898;2022-11-14T23:49:25;11.9;91.0
21121;DHT22;12519;43.318;21.898;2022-11-14T23:54:02;11.9;91.0
21121;DHT22;12519;43.318;21.898;2022-11-14T23:58:41;11.9;91.0
